createdAt,value
2022-09-07T00:01:02.792Z,95376.13
2022-09-07T00:03:30.790Z,95378.72
2022-09-07T00:05:59.206Z,95372.25
2022-09-07T00:08:28.421Z,95377.59
2022-09-07T00:10:57.767Z,95386.44
2022-09-07T00:13:28.281Z,95388.19
2022-09-07T00:15:58.485Z,95385.94
2022-09-07T00:18:26.896Z,95382.41
2022-09-07T00:21:06.225Z,95383.69
2022-09-07T00:23:35.565Z,95390.47
2022-09-07T00:26:04.765Z,95383.88
2022-09-07T00:28:32.968Z,95387.09
2022-09-07T00:31:02.361Z,95386.13
2022-09-07T00:33:30.397Z,95379.50
2022-09-07T00:35:59.634Z,95392.22
2022-09-07T00:38:27.579Z,95392.22
2022-09-07T00:40:55.673Z,95389.50
2022-09-07T00:43:32.726Z,95390.47
2022-09-07T00:46:02.566Z,95383.22
2022-09-07T00:48:35.348Z,95383.41
2022-09-07T00:51:06.312Z,95387.56
2022-09-07T00:53:39.314Z,95379.81
2022-09-07T00:56:08.462Z,95384.16
2022-09-07T00:58:38.782Z,95389.66
2022-09-07T01:01:09.740Z,95378.53
2022-09-07T01:03:40.598Z,95378.22
2022-09-07T01:06:15.331Z,95384.66
2022-09-07T01:08:44.603Z,95390.47
2022-09-07T01:11:12.969Z,95380.94
2022-09-07T01:13:42.120Z,95379.84
2022-09-07T01:16:22.050Z,95374.53
2022-09-07T01:19:01.260Z,95371.13
2022-09-07T01:21:44.385Z,95370.50
2022-09-07T01:24:38.877Z,95373.72
2022-09-07T01:27:45.536Z,95380.63
2022-09-07T01:30:15.625Z,95389.81
2022-09-07T01:33:02.394Z,95383.84
2022-09-07T01:35:42.603Z,95401.25
2022-09-07T01:38:19.053Z,95394.00
2022-09-07T01:40:52.590Z,95404.63
2022-09-07T01:43:30.346Z,95401.56
2022-09-07T01:46:01.218Z,95400.13
2022-09-07T01:48:29.316Z,95390.78
2022-09-07T01:51:00.322Z,95396.09
2022-09-07T01:53:34.100Z,95396.41
2022-09-07T01:56:06.150Z,95389.50
2022-09-07T01:58:40.607Z,95394.66
2022-09-07T02:01:12.378Z,95393.03
2022-09-07T02:03:43.497Z,95385.78
2022-09-07T02:06:17.449Z,95393.84
2022-09-07T02:08:52.249Z,95389.66
2022-09-07T02:11:24.190Z,95394.00
2022-09-07T02:13:59.424Z,95392.53
2022-09-07T02:16:28.818Z,95396.09
2022-09-07T02:18:59.882Z,95399.47
2022-09-07T02:21:35.300Z,95402.88
2022-09-07T02:24:10.548Z,95400.94
2022-09-07T02:26:40.812Z,95403.19
2022-09-07T02:29:10.229Z,95393.56
2022-09-07T02:31:38.203Z,95390.94
2022-09-07T02:34:09.674Z,95388.22
2022-09-07T02:36:42.663Z,95384.34
2022-09-07T02:39:10.545Z,95376.00
2022-09-07T02:41:40.681Z,95378.84
2022-09-07T02:44:14.029Z,95370.31
2022-09-07T02:46:53.638Z,95371.28
2022-09-07T02:49:36.193Z,95371.78
2022-09-07T02:52:13.200Z,95377.91
2022-09-07T02:54:54.807Z,95368.72
2022-09-07T02:57:32.693Z,95368.41
2022-09-07T03:00:09.782Z,95380.50
2022-09-07T03:02:48.199Z,95380.00
2022-09-07T03:05:21.923Z,95379.50
2022-09-07T03:07:55.934Z,95379.34
2022-09-07T03:10:27.180Z,95360.03
2022-09-07T03:12:55.312Z,95365.97
2022-09-07T03:15:27.791Z,95370.50
2022-09-07T03:17:56.219Z,95367.13
2022-09-07T03:20:24.292Z,95372.28
2022-09-07T03:22:53.270Z,95370.16
2022-09-07T03:25:23.065Z,95374.50
2022-09-07T03:27:50.972Z,95372.09
2022-09-07T03:30:19.016Z,95379.66
2022-09-07T03:32:48.243Z,95385.78
2022-09-07T03:35:16.191Z,95391.91
2022-09-07T03:37:44.126Z,95384.66
2022-09-07T03:40:17.725Z,95387.25
2022-09-07T03:42:49.497Z,95385.13
2022-09-07T03:45:17.684Z,95379.97
2022-09-07T03:47:45.769Z,95383.03
2022-09-07T03:50:14.943Z,95379.50
2022-09-07T03:52:44.730Z,95378.38
2022-09-07T03:55:12.705Z,95375.00
2022-09-07T03:57:41.086Z,95384.00
2022-09-07T04:00:09.961Z,95389.50
2022-09-07T04:02:37.910Z,95393.03
2022-09-07T04:05:06.393Z,95394.63
2022-09-07T04:07:35.628Z,95392.88
2022-09-07T04:10:03.504Z,95392.56
2022-09-07T04:12:37.161Z,95391.91
2022-09-07T04:15:05.492Z,95388.69
2022-09-07T04:17:33.361Z,95394.16
2022-09-07T04:20:01.222Z,95394.97
2022-09-07T04:22:29.092Z,95402.06
2022-09-07T04:24:58.309Z,95403.50
2022-09-07T04:27:26.158Z,95401.75
2022-09-07T04:29:54.046Z,95406.41
2022-09-07T04:32:21.916Z,95407.03
2022-09-07T04:34:51.926Z,95411.72
2022-09-07T04:37:19.789Z,95408.47
2022-09-07T04:39:47.715Z,95405.75
2022-09-07T04:42:17.024Z,95402.56
2022-09-07T04:44:45.094Z,95410.09
2022-09-07T04:47:12.961Z,95405.09
2022-09-07T04:49:40.789Z,95404.31
2022-09-07T04:52:08.682Z,95397.53
2022-09-07T04:54:36.556Z,95404.63
2022-09-07T04:57:04.499Z,95402.38
2022-09-07T04:59:33.758Z,95402.69
2022-09-07T05:02:01.682Z,95407.84
2022-09-07T05:04:29.610Z,95408.16
2022-09-07T05:06:57.546Z,95408.47
2022-09-07T05:09:25.414Z,95404.31
2022-09-07T05:11:53.354Z,95406.41
2022-09-07T05:14:21.567Z,95405.75
2022-09-07T05:16:50.895Z,95413.50
2022-09-07T05:19:18.864Z,95409.97
2022-09-07T05:21:46.703Z,95413.66
2022-09-07T05:24:14.602Z,95413.97
2022-09-07T05:26:42.453Z,95412.84
2022-09-07T05:32:03.873Z,95411.88
2022-09-07T05:34:32.391Z,95421.75
2022-09-07T05:37:01.187Z,95418.66
2022-09-07T05:39:29.529Z,95421.72
2022-09-07T05:41:57.669Z,95424.31
2022-09-07T05:47:15.159Z,95438.94
2022-09-07T05:49:43.027Z,95453.59
2022-09-07T05:52:12.108Z,95448.06
2022-09-07T05:54:40.190Z,95454.78
2022-09-07T05:57:08.391Z,95448.56
2022-09-07T05:59:36.290Z,95447.91
2022-09-07T06:02:04.774Z,95456.56
2022-09-07T06:04:34.376Z,95455.09
2022-09-07T06:07:21.015Z,95457.34
2022-09-07T06:12:37.267Z,95460.88
2022-09-07T06:15:05.964Z,95461.22
2022-09-07T06:17:34.004Z,95467.50
2022-09-07T06:20:03.831Z,95468.09
2022-09-07T06:22:31.720Z,95466.94
2022-09-07T06:25:00.037Z,95478.56
2022-09-07T06:27:28.219Z,95486.38
2022-09-07T06:29:56.234Z,95478.09
2022-09-07T06:35:14.407Z,95474.22
2022-09-07T06:37:42.777Z,95468.44
2022-09-07T06:40:12.009Z,95465.34
2022-09-07T06:42:40.062Z,95472.03
2022-09-07T06:45:10.092Z,95467.16
2022-09-07T06:47:38.082Z,95475.22
2022-09-07T06:50:06.418Z,95467.25
2022-09-07T06:55:25.720Z,95459.25
2022-09-07T06:57:54.379Z,95464.75
2022-09-07T07:00:23.935Z,95463.59
2022-09-07T07:02:52.005Z,95466.47
2022-09-07T07:05:19.966Z,95469.06
2022-09-07T07:07:49.213Z,95462.53
2022-09-07T07:10:19.695Z,95465.97
2022-09-07T07:12:50.166Z,95470.28
2022-09-07T07:15:18.032Z,95470.22
2022-09-07T07:17:47.985Z,95466.63
2022-09-07T07:20:19.967Z,95468.19
2022-09-07T07:22:52.614Z,95468.94
2022-09-07T07:25:21.082Z,95475.56
2022-09-07T07:27:49.646Z,95478.72
2022-09-07T07:30:19.039Z,95470.53
2022-09-07T07:32:47.760Z,95474.63
2022-09-07T07:35:16.461Z,95474.84
2022-09-07T07:37:44.290Z,95477.56
2022-09-07T07:40:15.545Z,95482.31
2022-09-07T07:42:44.704Z,95484.16
2022-09-07T07:48:00.941Z,95475.56
2022-09-07T07:50:32.653Z,95464.28
2022-09-07T07:55:51.334Z,95473.22
2022-09-07T07:58:19.781Z,95475.88
2022-09-07T08:00:54.635Z,95479.00
2022-09-07T08:03:23.001Z,95489.13
2022-09-07T08:05:50.961Z,95483.59
2022-09-07T08:08:19.030Z,95480.56
2022-09-07T08:10:47.808Z,95478.53
2022-09-07T08:13:17.797Z,95478.47
2022-09-07T08:15:46.529Z,95482.53
2022-09-07T08:18:15.653Z,95473.88
2022-09-07T08:20:43.983Z,95481.56
2022-09-07T08:23:11.860Z,95473.69
2022-09-07T08:25:39.796Z,95467.00
2022-09-07T08:28:07.635Z,95458.94
2022-09-07T08:30:39.896Z,95462.66
2022-09-07T08:33:07.658Z,95470.97
2022-09-07T08:35:35.381Z,95462.88
2022-09-07T08:38:03.091Z,95463.94
2022-09-07T08:40:32.225Z,95461.47
2022-09-07T08:43:09.047Z,95465.16
2022-09-07T08:45:44.793Z,95466.56
2022-09-07T08:48:18.426Z,95464.97
2022-09-07T08:50:59.447Z,95459.72
2022-09-07T08:53:28.604Z,95461.31
2022-09-07T08:55:59.389Z,95462.25
2022-09-07T08:58:48.808Z,95458.91
2022-09-07T09:01:36.496Z,95447.00
2022-09-07T09:04:21.420Z,95446.75
2022-09-07T09:07:06.622Z,95444.66
2022-09-07T09:09:52.293Z,95451.72
2022-09-07T09:12:29.075Z,95449.31
2022-09-07T09:15:10.026Z,95450.09
2022-09-07T09:17:45.626Z,95439.91
2022-09-07T09:20:24.875Z,95435.88
2022-09-07T09:22:53.093Z,95436.59
2022-09-07T09:25:22.994Z,95439.66
2022-09-07T09:27:51.062Z,95436.88
2022-09-07T09:30:20.566Z,95437.38
2022-09-07T09:32:52.527Z,95433.16
2022-09-07T09:35:28.318Z,95424.59
2022-09-07T09:37:57.592Z,95429.72
2022-09-07T09:40:28.363Z,95424.63
2022-09-07T09:43:05.396Z,95429.09
2022-09-07T09:48:32.287Z,95422.03
2022-09-07T09:53:57.164Z,95418.38
2022-09-07T09:56:37.889Z,95405.16
2022-09-07T10:05:28.705Z,95413.19
2022-09-07T10:07:57.496Z,95410.13
2022-09-07T10:10:27.372Z,95417.72
2022-09-07T10:12:55.998Z,95415.69
2022-09-07T10:15:32.852Z,95421.03
2022-09-07T10:18:07.013Z,95414.13
2022-09-07T10:20:38.679Z,95412.66
2022-09-07T10:23:19.350Z,95412.28
2022-09-07T10:25:47.573Z,95422.94
2022-09-07T10:28:20.280Z,95418.97
2022-09-07T10:31:11.003Z,95424.25
2022-09-07T10:36:45.704Z,95421.56
2022-09-07T10:39:18.003Z,95422.59
2022-09-07T10:41:54.184Z,95419.84
2022-09-07T10:44:32.066Z,95405.94
2022-09-07T10:47:08.795Z,95408.97
2022-09-07T10:50:21.920Z,95408.78
2022-09-07T10:52:40.120Z,95395.56
2022-09-07T10:55:15.317Z,95394.31
2022-09-07T10:57:56.174Z,95393.44
2022-09-07T11:00:25.742Z,95383.81
2022-09-07T11:03:31.082Z,95390.78
2022-09-07T11:06:16.129Z,95365.34
2022-09-07T11:09:16.509Z,95370.88
2022-09-07T11:12:04.269Z,95373.28
2022-09-07T11:14:37.675Z,95364.28
2022-09-07T11:17:14.160Z,95365.16
2022-09-07T11:19:48.711Z,95351.28
2022-09-07T11:22:23.741Z,95358.44
2022-09-07T11:27:49.826Z,95349.03
2022-09-07T11:30:21.723Z,95343.34
2022-09-07T11:32:55.578Z,95338.28
2022-09-07T11:35:32.385Z,95335.63
2022-09-07T11:38:06.357Z,95335.66
2022-09-07T11:40:40.477Z,95332.81
2022-09-07T11:43:17.708Z,95338.31
2022-09-07T11:45:49.812Z,95333.59
2022-09-07T11:48:22.390Z,95328.84
2022-09-07T11:50:57.454Z,95323.69
2022-09-07T11:53:29.023Z,95330.84
2022-09-07T11:56:03.026Z,95323.00
2022-09-07T11:58:57.600Z,95334.94
2022-09-07T12:01:36.388Z,95320.13
2022-09-07T12:04:34.797Z,95323.38
2022-09-07T12:07:25.034Z,95305.50
2022-09-07T12:10:08.146Z,95307.09
2022-09-07T12:13:02.261Z,95305.91
2022-09-07T12:15:38.119Z,95314.69
2022-09-07T12:18:18.215Z,95306.31
2022-09-07T12:20:48.127Z,95305.88
2022-09-07T12:23:28.555Z,95301.53
2022-09-07T12:26:45.616Z,95301.91
2022-09-07T12:29:23.032Z,95295.16
2022-09-07T12:32:52.367Z,95297.56
2022-09-07T12:35:01.083Z,95293.19
2022-09-07T12:37:42.964Z,95299.13
2022-09-07T12:40:48.887Z,95291.97
2022-09-07T12:43:52.178Z,95293.56
2022-09-07T12:46:43.557Z,95285.59
2022-09-07T12:49:25.177Z,95278.00
2022-09-07T12:52:05.001Z,95274.84
2022-09-07T12:54:46.507Z,95273.22
2022-09-07T12:57:32.699Z,95280.41
2022-09-07T13:00:12.995Z,95274.06
2022-09-07T13:03:03.898Z,95263.69
2022-09-07T13:05:51.141Z,95274.06
2022-09-07T13:08:42.329Z,95268.06
2022-09-07T13:11:24.866Z,95258.53
2022-09-07T13:14:02.954Z,95255.72
2022-09-07T13:17:15.956Z,95248.19
2022-09-07T13:19:56.785Z,95246.97
2022-09-07T13:23:12.184Z,95239.41
2022-09-07T13:25:49.998Z,95238.63
2022-09-07T13:28:56.932Z,95241.81
2022-09-07T13:31:45.806Z,95235.44
2022-09-07T13:34:49.312Z,95230.66
2022-09-07T13:37:20.569Z,95237.41
2022-09-07T13:39:52.583Z,95226.25
2022-09-07T13:42:25.928Z,95226.56
2022-09-07T13:44:58.420Z,95225.34
2022-09-07T13:47:35.964Z,95224.66
2022-09-07T13:50:17.007Z,95210.75
2022-09-07T13:53:02.385Z,95213.91
2022-09-07T13:55:38.111Z,95210.72
2022-09-07T13:58:17.773Z,95208.75
2022-09-07T14:00:54.086Z,95208.38
2022-09-07T14:03:24.393Z,95203.97
2022-09-07T14:06:17.132Z,95201.56
2022-09-07T14:08:49.437Z,95188.44
2022-09-07T14:11:22.429Z,95191.63
2022-09-07T14:14:14.790Z,95189.63
2022-09-07T14:16:44.811Z,95185.66
2022-09-07T14:19:18.346Z,95178.06
2022-09-07T14:21:55.403Z,95179.69
2022-09-07T14:24:29.759Z,95177.28
2022-09-07T14:26:57.628Z,95183.66
2022-09-07T14:29:30.026Z,95172.50
2022-09-07T14:31:59.481Z,95178.53
2022-09-07T14:34:32.362Z,95169.75
2022-09-07T14:37:04.710Z,95175.31
2022-09-07T14:39:37.451Z,95172.94
2022-09-07T14:42:07.599Z,95171.31
2022-09-07T14:44:40.267Z,95172.09
2022-09-07T14:47:13.126Z,95177.63
2022-09-07T14:49:40.883Z,95168.44
2022-09-07T14:52:08.715Z,95166.44
2022-09-07T14:54:36.512Z,95168.81
2022-09-07T14:57:30.499Z,95166.44
2022-09-07T15:00:20.808Z,95155.31
2022-09-07T15:02:50.564Z,95158.06
2022-09-07T15:05:27.165Z,95150.53
2022-09-07T15:07:57.761Z,95149.72
2022-09-07T15:10:41.313Z,95154.13
2022-09-07T15:13:25.964Z,95141.03
2022-09-07T15:16:01.173Z,95141.06
2022-09-07T15:18:50.613Z,95149.44
2022-09-07T15:21:18.530Z,95145.47
2022-09-07T15:23:51.038Z,95141.06
2022-09-07T15:29:10.900Z,95138.69
2022-09-07T15:31:56.818Z,95134.31
2022-09-07T15:34:29.392Z,95138.69
2022-09-07T15:37:00.165Z,95133.13
2022-09-07T15:39:33.294Z,95122.38
2022-09-07T15:42:59.543Z,95120.38
2022-09-07T15:44:50.232Z,95120.78
2022-09-07T15:50:08.578Z,95111.63
2022-09-07T15:52:37.433Z,95109.66
2022-09-07T15:55:06.153Z,95109.25
2022-09-07T15:57:54.624Z,95104.09
2022-09-07T16:00:21.811Z,95099.69
2022-09-07T16:03:07.884Z,95101.69
2022-09-07T16:05:36.792Z,95092.16
2022-09-07T16:10:55.318Z,95097.31
2022-09-07T16:13:24.702Z,95089.38
2022-09-07T16:15:52.557Z,95088.56
2022-09-07T16:18:21.592Z,95080.97
2022-09-07T16:20:52.649Z,95092.09
2022-09-07T16:23:21.081Z,95087.66
2022-09-07T16:25:59.436Z,95079.19
2022-09-07T16:28:28.467Z,95083.47
2022-09-07T16:30:56.674Z,95082.19
2022-09-07T16:33:33.006Z,95087.56
2022-09-07T16:36:06.879Z,95085.06
2022-09-07T16:38:50.382Z,95084.94
2022-09-07T16:41:20.477Z,95088.34
2022-09-07T16:43:48.747Z,95088.53
2022-09-07T16:46:18.493Z,95087.19
2022-09-07T16:48:47.703Z,95077.91
2022-09-07T16:51:18.703Z,95078.13
2022-09-07T16:53:46.536Z,95077.59
2022-09-07T16:56:17.140Z,95081.47
2022-09-07T16:58:46.581Z,95080.22
2022-09-07T17:01:18.814Z,95076.66
2022-09-07T17:03:49.422Z,95070.75
2022-09-07T17:06:19.060Z,95062.81
2022-09-07T17:08:47.133Z,95070.63
2022-09-07T17:11:17.079Z,95064.56
2022-09-07T17:13:45.620Z,95059.34
2022-09-07T17:16:17.756Z,95060.03
2022-09-07T17:21:40.196Z,95068.53
2022-09-07T17:24:09.937Z,95074.72
2022-09-07T17:26:37.845Z,95079.34
2022-09-07T17:29:07.175Z,95068.91
2022-09-07T17:34:26.422Z,95070.81
2022-09-07T17:36:54.130Z,95070.38
2022-09-07T17:39:22.089Z,95074.16
2022-09-07T17:41:52.590Z,95064.53
2022-09-07T17:44:20.939Z,95068.22
2022-09-07T17:46:48.679Z,95064.44
2022-09-07T17:49:17.834Z,95063.84
2022-09-07T17:51:47.312Z,95067.91
2022-09-07T17:54:17.846Z,95065.69
2022-09-07T17:56:46.580Z,95064.97
2022-09-07T18:02:02.585Z,95071.84
2022-09-07T18:04:30.446Z,95068.31
2022-09-07T18:06:59.634Z,95075.16
2022-09-07T18:09:27.394Z,95082.31
2022-09-07T18:11:55.138Z,95083.22
2022-09-07T18:14:22.970Z,95077.81
2022-09-07T18:16:51.527Z,95075.28
2022-09-07T18:19:19.386Z,95073.22
2022-09-07T18:21:48.621Z,95071.53
2022-09-07T18:24:20.715Z,95070.28
2022-09-07T18:26:51.044Z,95058.47
2022-09-07T18:29:31.205Z,95063.88
2022-09-07T18:32:07.516Z,95058.69
2022-09-07T18:34:36.512Z,95070.63
2022-09-07T18:37:04.685Z,95064.97
2022-09-07T18:39:35.377Z,95075.09
2022-09-07T18:42:03.327Z,95071.34
2022-09-07T18:47:27.639Z,95077.31
2022-09-07T18:49:56.021Z,95082.44
2022-09-07T18:55:15.153Z,95070.97
2022-09-07T18:57:43.083Z,95077.06
2022-09-07T19:00:12.556Z,95074.59
2022-09-07T19:02:40.412Z,95070.84
2022-09-07T19:07:56.541Z,95069.72
2022-09-07T19:10:25.654Z,95078.84
2022-09-07T19:12:53.351Z,95087.03
2022-09-07T19:15:21.472Z,95087.25
2022-09-07T19:17:49.190Z,95086.25
2022-09-07T19:20:17.487Z,95089.63
2022-09-07T19:22:45.167Z,95087.78
2022-09-07T19:25:12.898Z,95082.97
2022-09-07T19:27:41.998Z,95080.50
2022-09-07T19:30:10.810Z,95083.47
2022-09-07T19:32:40.583Z,95085.78
2022-09-07T19:35:08.957Z,95077.88
2022-09-07T19:37:36.896Z,95078.09
2022-09-07T19:40:05.080Z,95083.47
2022-09-07T19:42:32.813Z,95081.78
2022-09-07T19:45:02.063Z,95082.09
2022-09-07T19:47:29.773Z,95077.75
2022-09-07T19:49:57.469Z,95080.44
2022-09-07T19:52:27.388Z,95073.22
2022-09-07T19:54:57.078Z,95072.63
2022-09-07T19:57:24.783Z,95073.59
2022-09-07T19:59:56.627Z,95065.91
2022-09-07T20:02:25.755Z,95064.53
2022-09-07T20:04:54.083Z,95069.22
2022-09-07T20:07:21.822Z,95063.50
2022-09-07T20:09:51.005Z,95062.94
2022-09-07T20:12:19.700Z,95062.34
2022-09-07T20:14:56.084Z,95060.66
2022-09-07T20:17:25.280Z,95055.03
2022-09-07T20:19:53.035Z,95053.56
2022-09-07T20:22:20.747Z,95051.94
2022-09-07T20:24:48.477Z,95060.66
2022-09-07T20:27:16.185Z,95058.25
2022-09-07T20:29:43.892Z,95053.44
2022-09-07T20:32:11.760Z,95042.34
2022-09-07T20:34:40.844Z,95036.38
2022-09-07T20:37:08.538Z,95033.19
2022-09-07T20:39:39.308Z,95022.66
2022-09-07T20:42:07.892Z,95024.38
2022-09-07T20:44:35.842Z,95023.22
2022-09-07T20:47:03.921Z,95020.47
2022-09-07T20:49:31.667Z,95021.97
2022-09-07T20:52:00.721Z,95021.03
2022-09-07T20:54:28.448Z,95008.38
2022-09-07T20:56:56.163Z,95013.75
2022-09-07T20:59:25.444Z,95009.41
2022-09-07T21:01:53.279Z,95005.28
2022-09-07T21:04:21.032Z,94997.38
2022-09-07T21:06:48.706Z,94994.53
2022-09-07T21:09:17.811Z,94991.34
2022-09-07T21:11:49.136Z,94984.69
2022-09-07T21:14:19.229Z,94985.38
2022-09-07T21:16:46.942Z,94972.47
2022-09-07T21:19:14.655Z,94978.28
2022-09-07T21:21:43.588Z,94973.13
2022-09-07T21:24:18.744Z,94970.72
2022-09-07T21:26:47.362Z,94967.19
2022-09-07T21:29:18.539Z,94964.91
2022-09-07T21:31:46.792Z,94964.09
2022-09-07T21:34:18.421Z,94954.72
2022-09-07T21:36:46.510Z,94955.06
2022-09-07T21:39:14.908Z,94938.72
2022-09-07T21:41:45.090Z,94951.03
2022-09-07T21:44:15.146Z,94945.66
2022-09-07T21:46:43.765Z,94951.16
2022-09-07T21:49:11.742Z,94942.56
2022-09-07T21:51:39.677Z,94949.91
2022-09-07T21:54:07.582Z,94940.06
2022-09-07T21:56:35.593Z,94935.72
2022-09-07T21:59:04.650Z,94943.50
2022-09-07T22:01:33.032Z,94935.16
2022-09-07T22:04:02.663Z,94939.38
2022-09-07T22:06:32.388Z,94944.75
2022-09-07T22:09:01.148Z,94948.91
2022-09-07T22:11:30.462Z,94954.25
2022-09-07T22:14:00.275Z,94952.88
2022-09-07T22:16:30.119Z,94946.50
2022-09-07T22:18:57.920Z,94936.22
2022-09-07T22:21:28.284Z,94930.59
2022-09-07T22:23:58.196Z,94925.47
2022-09-07T22:26:28.310Z,94925.47
2022-09-07T22:28:58.903Z,94933.13
2022-09-07T22:31:28.306Z,94947.06
2022-09-07T22:33:59.014Z,94966.72
2022-09-07T22:36:28.547Z,94983.31
2022-09-07T22:38:58.338Z,94982.59
2022-09-07T22:41:27.631Z,94979.28
2022-09-07T22:43:56.041Z,94975.88
2022-09-07T22:46:25.646Z,94980.00
2022-09-07T22:48:54.559Z,94974.72
2022-09-07T22:51:25.269Z,94979.22
2022-09-07T22:53:53.526Z,94967.59
2022-09-07T22:56:22.960Z,94966.59
2022-09-07T22:58:52.367Z,94973.28
